Time;durP1;ratioP1;P1;durP2;ratioP2;P2;SDS_P1;SDS_P2;PMS_P1;PMS_P2;Temp;Humidity;BMP_temperature;BMP_pressure;BME280_temperature;BME280_humidity;BME280_pressure;Samples;Min_cycle;Max_cycle;Signal;HPM_P1;HPM_P2
2022/05/09 06:34:59;;;;;;;;;;;;;;;15.05;65.55;100697.41;1088487;39;20673;-80
2022/05/09 06:36:03;;;;;;;;;;;;;;;15.05;65.66;100692.03;1087564;54;19943;-79
2022/05/09 06:37:04;;;;;;;;;;;;;;;15.04;66.03;100693.03;1088023;54;19949;-78
2022/05/09 06:38:09;;;;;;;;;;;;;;;15.09;65.74;100696.09;1088063;54;19939;-83
2022/05/09 06:39:23;;;;;;;;;;;;;;;15.12;65.85;100693.06;1087974;54;19949;-82
2022/05/09 06:40:25;;;;;;;;;;;;;;;15.16;65.56;100692.75;1088883;46;19966;-78
2022/05/09 06:41:29;;;;;;;;;;;;;;;15.16;65.63;100692.75;1088228;54;19941;-82
2022/05/09 06:42:32;;;;;;;;;;;;;;;15.18;65.35;100690.75;1088429;54;19949;-82
2022/05/09 06:43:36;;;;;;;;;;;;;;;15.25;65.39;100692.66;1088370;54;19945;-81
2022/05/09 06:44:40;;;;;;;;;;;;;;;15.35;65.07;100691.72;1089657;46;19934;-82
2022/05/09 06:45:44;;;;;;;;;;;;;;;15.43;64.74;100683.66;1090212;46;19942;-82
2022/05/09 06:46:47;;;;;;;;;;;;;;;15.53;64.66;100686.22;1090533;46;19949;-82
2022/05/09 06:47:50;;;;;;;;;;;;;;;15.59;64.34;100686.41;1088399;54;19942;-83
2022/05/09 06:48:53;;;;;;;;;;;;;;;15.65;64.19;100684.94;1088497;54;19934;-82
2022/05/09 06:50:00;;;;;;;;;;;;;;;15.73;64.04;100681.41;1088489;54;19949;-81
2022/05/09 06:51:04;;;;;;;;;;;;;;;15.71;63.62;100681.56;1089432;39;20450;-82
2022/05/09 06:52:08;;;;;;;;;;;;;;;15.73;63.87;100678.72;1088326;54;19926;-81
2022/05/09 06:53:13;;;;;;;;;;;;;;;15.66;63.90;100688.47;1090054;46;19934;-81
2022/05/09 06:54:18;;;;;;;;;;;;;;;15.59;64.20;100681.03;1091985;46;19943;-81
2022/05/09 06:55:28;;;;;;;;;;;;;;;15.62;64.13;100679.84;1088363;54;19939;-80
2022/05/09 06:56:32;;;;;;;;;;;;;;;15.68;64.17;100687.28;1087919;54;19949;-81
2022/05/09 06:57:36;;;;;;;;;;;;;;;15.71;63.97;100688.84;1088056;54;19946;-80
2022/05/09 06:58:40;;;;;;;;;;;;;;;15.81;63.49;100688.69;1088384;54;20023;-81
2022/05/09 06:59:42;;;;;;;;;;;;;;;15.84;63.28;100686.53;1088365;54;19939;-81
2022/05/09 07:00:46;;;;;;;;;;;;;;;15.87;63.08;100690.78;1088328;54;20189;-80
2022/05/09 07:01:47;;;;;;;;;;;;;;;15.95;63.19;100682.72;1088371;54;19942;-83
2022/05/09 07:02:51;;;;;;;;;;;;;;;15.96;62.68;100688.94;1088368;54;19934;-80
2022/05/09 07:03:55;;;;;;;;;;;;;;;16.01;62.56;100682.03;1088660;46;19934;-81
2022/05/09 07:04:56;;;;;;;;;;;;;;;16.00;62.40;100685.75;1088409;54;19927;-83
2022/05/09 07:06:03;;;;;;;;;;;;;;;16.14;62.57;100683.41;1088337;54;19998;-81
2022/05/09 07:07:04;;;;;;;;;;;;;;;16.29;62.66;100680.91;1088387;54;19927;-83
2022/05/09 07:08:09;;;;;;;;;;;;;;;16.40;62.21;100682.44;1088390;54;19943;-82
2022/05/09 07:09:15;;;;;;;;;;;;;;;16.51;61.69;100677.53;1089658;39;20500;-81
2022/05/09 07:10:17;;;;;;;;;;;;;;;16.62;61.53;100680.91;1088387;54;19957;-82
2022/05/09 07:11:21;;;;;;;;;;;;;;;16.57;61.29;100681.41;1088281;54;19927;-80
2022/05/09 07:12:22;;;;;;;;;;;;;;;16.55;61.32;100677.22;1088206;54;19927;-83
2022/05/09 07:13:26;;;;;;;;;;;;;;;16.59;61.17;100678.53;1087893;54;19939;-78
2022/05/09 07:14:27;;;;;;;;;;;;;;;16.59;60.97;100681.25;1088202;54;19950;-81
2022/05/09 07:15:32;;;;;;;;;;;;;;;16.56;60.93;100681.59;1088334;54;19978;-80
2022/05/09 07:16:36;;;;;;;;;;;;;;;16.62;60.70;100672.81;1088259;54;19943;-79
2022/05/09 07:17:38;;;;;;;;;;;;;;;16.69;60.87;100676.53;1087962;54;20578;-81
2022/05/09 07:18:43;;;;;;;;;;;;;;;16.75;60.25;100673.16;1088290;54;19942;-80
2022/05/09 07:19:44;;;;;;;;;;;;;;;16.76;60.73;100680.25;1088344;54;19945;-82
2022/05/09 07:20:48;;;;;;;;;;;;;;;16.91;60.22;100669.56;1088290;54;19949;-80
2022/05/09 07:21:55;;;;;;;;;;;;;;;16.99;59.98;100679.56;1088350;54;19969;-81
2022/05/09 07:22:56;;;;;;;;;;;;;;;17.13;59.95;100675.31;1088370;54;19949;-82
2022/05/09 07:24:00;;;;;;;;;;;;;;;17.26;59.30;100675.63;1090272;39;20755;-82
2022/05/09 07:25:02;;;;;;;;;;;;;;;17.36;59.12;100675.41;1088247;54;19962;-82
2022/05/09 07:26:06;;;;;;;;;;;;;;;17.35;59.06;100678.28;1087994;54;19950;-83
2022/05/09 07:27:07;;;;;;;;;;;;;;;17.40;59.29;100671.34;1088182;54;19943;-85
2022/05/09 07:28:15;;;;;;;;;;;;;;;17.41;58.64;100673.03;1087929;54;19943;-82
2022/05/09 07:29:19;;;;;;;;;;;;;;;17.47;58.66;100674.22;1087946;54;19942;-83
2022/05/09 07:30:23;;;;;;;;;;;;;;;17.46;58.49;100673.34;1087849;54;19943;-81
2022/05/09 07:31:29;;;;;;;;;;;;;;;17.52;58.99;100674.50;1087787;54;19942;-82
2022/05/09 07:32:30;;;;;;;;;;;;;;;17.55;58.38;100679.59;1087863;54;19942;-81
2022/05/09 07:33:33;;;;;;;;;;;;;;;17.66;58.21;100677.50;1087844;54;19942;-84
2022/05/09 07:34:35;;;;;;;;;;;;;;;17.74;58.22;100674.75;1088340;54;20665;-83
2022/05/09 07:35:38;;;;;;;;;;;;;;;17.70;58.31;100673.41;1088269;54;19942;-82
2022/05/09 07:36:43;;;;;;;;;;;;;;;17.92;57.70;100674.47;1088154;54;19930;-81
2022/05/09 07:37:47;;;;;;;;;;;;;;;18.07;57.62;100674.59;1088318;54;20598;-82
2022/05/09 07:38:51;;;;;;;;;;;;;;;18.23;56.50;100671.78;1088324;54;19973;-79
2022/05/09 07:39:55;;;;;;;;;;;;;;;18.30;56.65;100671.06;1088256;54;19943;-80
2022/05/09 07:40:59;;;;;;;;;;;;;;;18.44;56.30;100672.97;1088240;54;19950;-82
2022/05/09 07:42:00;;;;;;;;;;;;;;;18.44;56.09;100672.97;1088186;54;19943;-79
2022/05/09 07:43:04;;;;;;;;;;;;;;;18.44;56.26;100666.72;1088163;54;19990;-81
2022/05/09 07:44:08;;;;;;;;;;;;;;;18.34;56.37;100669.66;1090009;46;19935;-82
2022/05/09 07:45:10;;;;;;;;;;;;;;;18.30;56.46;100666.47;1088246;54;19943;-83
2022/05/09 07:46:14;;;;;;;;;;;;;;;18.41;56.45;100667.94;1088866;46;19989;-82
2022/05/09 07:47:16;;;;;;;;;;;;;;;18.50;55.89;100672.28;1088261;54;20610;-81
2022/05/09 07:48:20;;;;;;;;;;;;;;;18.65;55.83;100672.31;1088258;54;20975;-82
2022/05/09 07:49:21;;;;;;;;;;;;;;;18.73;55.36;100665.97;1087937;54;19942;-82
2022/05/09 07:50:26;;;;;;;;;;;;;;;18.67;55.63;100674.84;1087973;47;20940;-81
2022/05/09 07:51:30;;;;;;;;;;;;;;;18.52;55.48;100674.78;1088196;54;20697;-83
2022/05/09 07:52:33;;;;;;;;;;;;;;;18.54;55.69;100672.75;1088261;54;19942;-81
2022/05/09 07:53:37;;;;;;;;;;;;;;;18.52;56.13;100677.50;1088204;54;19942;-83
2022/05/09 07:54:41;;;;;;;;;;;;;;;18.52;55.81;100675.63;1088229;54;19946;-83
2022/05/09 07:55:42;;;;;;;;;;;;;;;18.59;55.44;100674.91;1088161;54;19966;-81
2022/05/09 07:56:46;;;;;;;;;;;;;;;18.80;55.58;100676.91;1088205;54;19938;-83
2022/05/09 07:57:50;;;;;;;;;;;;;;;19.04;54.84;100675.00;1088259;54;19939;-81
2022/05/09 07:58:54;;;;;;;;;;;;;;;19.27;54.08;100674.94;1088242;54;20002;-84
2022/05/09 07:59:58;;;;;;;;;;;;;;;19.30;53.60;100671.84;1088208;54;19950;-81
2022/05/09 08:01:02;;;;;;;;;;;;;;;19.06;53.95;100675.66;1089233;46;19962;-82
2022/05/09 08:02:03;;;;;;;;;;;;;;;18.94;54.32;100669.88;1088237;54;19942;-82
2022/05/09 08:03:08;;;;;;;;;;;;;;;18.79;54.84;100680.63;1088245;54;19949;-81
2022/05/09 08:04:12;;;;;;;;;;;;;;;18.88;54.71;100668.69;1088190;54;19950;-81
2022/05/09 08:05:14;;;;;;;;;;;;;;;19.15;54.65;100671.84;1089858;47;19975;-82
2022/05/09 08:06:18;;;;;;;;;;;;;;;19.42;53.89;100675.78;1087715;54;20057;-81
2022/05/09 08:07:19;;;;;;;;;;;;;;;19.59;53.25;100675.56;1087978;54;19966;-80
2022/05/09 08:08:23;;;;;;;;;;;;;;;19.62;52.92;100673.31;1088216;54;19942;-80
2022/05/09 08:09:30;;;;;;;;;;;;;;;19.87;53.05;100664.03;1088262;54;19935;-81
2022/05/09 08:10:33;;;;;;;;;;;;;;;20.01;52.47;100665.88;1092742;39;20420;-85
2022/05/09 08:11:35;;;;;;;;;;;;;;;20.07;51.78;100662.41;1088136;54;19942;-83
2022/05/09 08:12:47;;;;;;;;;;;;;;;20.19;51.56;100660.00;1088226;54;19945;-85
2022/05/09 08:13:51;;;;;;;;;;;;;;;20.44;51.43;100656.06;1088200;54;20903;-84
2022/05/09 08:14:52;;;;;;;;;;;;;;;20.49;50.95;100654.44;1088978;47;19966;-83
2022/05/09 08:15:56;;;;;;;;;;;;;;;20.42;50.66;100657.09;1088157;54;19942;-85
2022/05/09 08:17:00;;;;;;;;;;;;;;;20.45;50.71;100658.56;1089865;47;19942;-85
2022/05/09 08:18:02;;;;;;;;;;;;;;;20.20;51.42;100653.53;1088300;54;19965;-86
2022/05/09 08:19:06;;;;;;;;;;;;;;;20.06;51.27;100668.03;1088304;54;19943;-84
2022/05/09 08:20:08;;;;;;;;;;;;;;;20.15;51.57;100660.59;1088253;54;19942;-84
2022/05/09 08:21:13;;;;;;;;;;;;;;;20.38;51.70;100663.09;1088099;54;19964;-85
2022/05/09 08:22:21;;;;;;;;;;;;;;;20.42;51.00;100654.38;1088009;54;19943;-82
2022/05/09 08:23:25;;;;;;;;;;;;;;;20.32;50.85;100653.84;1087865;54;19942;-80
2022/05/09 08:24:32;;;;;;;;;;;;;;;20.59;50.69;100648.69;1088238;54;19934;-85
2022/05/09 08:25:34;;;;;;;;;;;;;;;20.82;50.24;100653.91;1088296;54;19938;-87
2022/05/09 08:26:40;;;;;;;;;;;;;;;20.61;49.99;100651.19;1088097;54;19950;-79
2022/05/09 08:27:43;;;;;;;;;;;;;;;20.69;50.23;100659.19;1088264;54;19942;-85
2022/05/09 08:28:47;;;;;;;;;;;;;;;20.53;50.36;100647.59;1088284;54;19954;-86
2022/05/09 08:29:56;;;;;;;;;;;;;;;20.74;50.39;100648.59;1088513;54;20555;-83
2022/05/09 08:31:00;;;;;;;;;;;;;;;20.68;50.00;100652.09;1089260;46;19965;-81
2022/05/09 08:32:05;;;;;;;;;;;;;;;20.67;50.44;100651.25;1088583;54;19943;-80
2022/05/09 08:33:10;;;;;;;;;;;;;;;20.91;50.20;100660.03;1088600;54;19943;-85
2022/05/09 08:34:14;;;;;;;;;;;;;;;20.92;49.46;100648.13;1088629;54;19951;-85
2022/05/09 08:35:18;;;;;;;;;;;;;;;20.87;49.74;100651.44;1088606;54;20903;-84
2022/05/09 08:40:10;;;;;;;;;;;;;;;20.61;50.75;100657.47;1088280;54;19939;-85
2022/05/09 08:41:16;;;;;;;;;;;;;;;20.70;50.08;100656.28;1088609;54;19927;-85
2022/05/09 08:42:23;;;;;;;;;;;;;;;20.87;50.10;100658.75;1088589;54;19927;-86
2022/05/09 08:43:33;;;;;;;;;;;;;;;21.18;49.75;100652.88;1091667;46;19943;-85
2022/05/09 08:44:52;;;;;;;;;;;;;;;21.56;48.96;100659.75;1088696;54;20614;-85
2022/05/09 08:46:02;;;;;;;;;;;;;;;21.79;48.59;100659.44;1089731;46;19923;-87
2022/05/09 08:47:24;;;;;;;;;;;;;;;21.78;47.82;100648.78;1088303;54;19974;-85
2022/05/09 08:48:34;;;;;;;;;;;;;;;22.11;47.77;100651.59;1088434;54;19935;-86
2022/05/09 08:49:45;;;;;;;;;;;;;;;22.22;47.18;100658.31;1088826;46;19965;-85
2022/05/09 08:50:55;;;;;;;;;;;;;;;22.33;46.69;100659.59;1088428;54;19939;-86
2022/05/09 08:52:03;;;;;;;;;;;;;;;22.45;46.62;100646.22;1088439;54;19942;-87
2022/05/09 08:53:09;;;;;;;;;;;;;;;22.67;46.54;100651.47;1088459;54;19965;-86
2022/05/09 08:54:17;;;;;;;;;;;;;;;22.80;45.90;100656.06;1088452;54;19974;-84
2022/05/09 08:55:26;;;;;;;;;;;;;;;22.97;45.74;100654.56;1091957;46;19943;-85
2022/05/09 08:56:30;;;;;;;;;;;;;;;23.11;45.11;100639.03;1087958;54;19998;-86
2022/05/09 08:57:39;;;;;;;;;;;;;;;23.24;45.05;100649.09;1090155;46;19923;-88
2022/05/09 08:58:45;;;;;;;;;;;;;;;22.66;45.16;100655.25;1088708;54;19942;-84
2022/05/09 08:59:52;;;;;;;;;;;;;;;22.41;45.48;100651.25;1088607;54;19923;-83
2022/05/09 09:00:53;;;;;;;;;;;;;;;22.59;46.18;100645.16;1088566;54;19950;-84
2022/05/09 09:02:01;;;;;;;;;;;;;;;22.81;45.84;100650.41;1088625;54;19999;-85
2022/05/09 09:03:13;;;;;;;;;;;;;;;22.87;45.46;100655.00;1088714;46;19927;-83
2022/05/09 09:04:20;;;;;;;;;;;;;;;23.20;45.29;100647.81;1088651;54;19927;-84
2022/05/09 09:05:25;;;;;;;;;;;;;;;23.35;44.58;100647.56;1088603;54;19966;-84
2022/05/09 09:06:44;;;;;;;;;;;;;;;23.50;43.91;100641.84;1088540;54;19950;-84
2022/05/09 09:07:58;;;;;;;;;;;;;;;23.38;43.87;100644.44;1088514;54;19941;-85
2022/05/09 09:09:11;;;;;;;;;;;;;;;23.02;44.58;100643.03;1088628;54;19950;-85
2022/05/09 09:10:17;;;;;;;;;;;;;;;22.97;44.99;100653.72;1088668;54;19970;-87
2022/05/09 09:11:30;;;;;;;;;;;;;;;22.96;44.85;100638.41;1088823;46;19965;-89
2022/05/09 09:12:40;;;;;;;;;;;;;;;23.04;45.04;100641.75;1088292;54;19966;-85
2022/05/09 09:13:51;;;;;;;;;;;;;;;23.19;44.77;100646.19;1088446;54;19938;-85
2022/05/09 09:15:01;;;;;;;;;;;;;;;23.50;43.97;100637.25;1088599;54;19927;-86
2022/05/09 09:16:15;;;;;;;;;;;;;;;23.42;43.58;100632.03;1088613;54;19927;-86
2022/05/09 09:17:28;;;;;;;;;;;;;;;23.73;43.63;100633.13;1089841;46;19934;-85
2022/05/09 09:18:34;;;;;;;;;;;;;;;24.02;42.98;100632.81;1088661;54;20032;-85
2022/05/09 09:19:51;;;;;;;;;;;;;;;24.23;42.68;100634.34;1088533;54;19942;-86
2022/05/09 09:21:01;;;;;;;;;;;;;;;24.15;42.22;100629.97;1088675;54;19926;-87
2022/05/09 09:22:08;;;;;;;;;;;;;;;24.31;42.10;100628.59;1091112;46;19947;-88
2022/05/09 09:23:21;;;;;;;;;;;;;;;24.49;41.79;100624.25;1088688;54;19950;-87
2022/05/09 09:24:32;;;;;;;;;;;;;;;24.08;41.90;100638.25;1090448;46;20014;-83
2022/05/09 09:25:48;;;;;;;;;;;;;;;23.46;42.40;100637.91;1088509;54;19938;-84
2022/05/09 09:27:02;;;;;;;;;;;;;;;23.16;43.27;100639.19;1088534;54;19950;-86
2022/05/09 09:28:09;;;;;;;;;;;;;;;23.05;43.80;100646.16;1088505;54;20210;-86
2022/05/09 09:29:16;;;;;;;;;;;;;;;23.38;43.21;100630.78;1088416;54;19942;-85
2022/05/09 09:30:18;;;;;;;;;;;;;;;23.66;43.10;100633.16;1088448;54;20618;-85
2022/05/09 09:32:25;;;;;;;;;;;;;;;23.86;42.59;100621.31;1088560;54;19994;-84
2022/05/09 09:33:34;;;;;;;;;;;;;;;23.90;42.30;100624.47;1088553;54;19927;-82
2022/05/09 09:34:43;;;;;;;;;;;;;;;24.09;42.20;100626.22;1090502;39;20541;-85
2022/05/09 09:35:50;;;;;;;;;;;;;;;24.19;41.77;100616.72;1088615;54;19943;-83
2022/05/09 09:36:57;;;;;;;;;;;;;;;24.16;41.88;100628.09;1088423;54;19933;-84
2022/05/09 09:49:32;;;;;;;;;;;;;;;24.06;41.98;100620.38;1088644;54;19934;-87
2022/05/09 09:50:33;;;;;;;;;;;;;;;24.05;42.11;100618.69;1088546;54;19950;-87
2022/05/09 09:51:46;;;;;;;;;;;;;;;24.26;41.77;100612.88;1088556;54;19950;-85
2022/05/09 09:52:53;;;;;;;;;;;;;;;24.09;41.96;100618.03;1088452;54;19942;-84
2022/05/09 09:54:01;;;;;;;;;;;;;;;24.39;41.84;100614.66;1088386;54;19942;-86
2022/05/09 09:55:09;;;;;;;;;;;;;;;24.66;41.19;100619.06;1088351;54;19998;-81
2022/05/09 09:56:27;;;;;;;;;;;;;;;24.96;40.66;100607.47;1088362;54;19994;-84
2022/05/09 09:57:35;;;;;;;;;;;;;;;24.68;39.93;100615.06;1089602;46;19973;-82
2022/05/09 09:58:42;;;;;;;;;;;;;;;24.36;40.27;100620.59;1089951;46;19967;-83
2022/05/09 09:59:44;;;;;;;;;;;;;;;24.26;40.67;100617.53;1088419;54;19942;-82
2022/05/09 10:00:48;;;;;;;;;;;;;;;24.30;40.62;100616.84;1089367;39;20455;-83
2022/05/09 10:02:05;;;;;;;;;;;;;;;24.29;40.54;100611.59;1088392;46;19943;-82
2022/05/09 10:03:21;;;;;;;;;;;;;;;24.27;40.75;100608.28;1088094;54;19943;-82
2022/05/09 10:04:25;;;;;;;;;;;;;;;24.23;41.29;100623.41;1088434;54;19943;-81
2022/05/09 10:05:38;;;;;;;;;;;;;;;24.36;40.97;100601.47;1089141;46;20023;-84
2022/05/09 10:06:59;;;;;;;;;;;;;;;24.68;40.36;100608.78;1088334;54;19962;-83
2022/05/09 10:08:19;;;;;;;;;;;;;;;24.99;39.99;100605.09;1088296;54;19986;-83
2022/05/09 10:09:23;;;;;;;;;;;;;;;25.20;39.58;100598.34;1088290;54;19950;-83
2022/05/09 10:10:28;;;;;;;;;;;;;;;25.20;39.82;100597.50;1088375;54;19958;-83
2022/05/09 10:11:33;;;;;;;;;;;;;;;25.45;39.30;100597.44;1088345;54;19939;-83
2022/05/09 10:12:35;;;;;;;;;;;;;;;25.59;39.11;100600.84;1088316;54;19943;-84
2022/05/09 10:13:40;;;;;;;;;;;;;;;25.50;38.64;100592.09;1088374;54;20003;-83
2022/05/09 10:14:44;;;;;;;;;;;;;;;25.35;38.81;100591.66;1089405;46;19946;-83
2022/05/09 10:16:03;;;;;;;;;;;;;;;25.32;38.65;100600.31;1089795;46;19974;-82
2022/05/09 10:17:17;;;;;;;;;;;;;;;24.84;38.42;100602.72;1088345;54;19966;-81
2022/05/09 10:18:22;;;;;;;;;;;;;;;24.89;38.88;100602.06;1088124;54;19950;-82
2022/05/09 10:19:31;;;;;;;;;;;;;;;24.49;38.94;100594.19;1092094;39;20641;-83
2022/05/09 10:20:41;;;;;;;;;;;;;;;24.79;39.25;100601.72;1088414;54;19938;-81
2022/05/09 10:25:57;;;;;;;;;;;;;;;24.25;40.65;100600.28;1088394;54;20013;-81
2022/05/09 10:27:02;;;;;;;;;;;;;;;24.39;40.54;100598.28;1088352;54;19939;-82
2022/05/09 10:28:06;;;;;;;;;;;;;;;24.42;40.49;100592.38;1088392;54;19949;-84
2022/05/09 10:29:17;;;;;;;;;;;;;;;24.33;40.64;100590.97;1088442;54;19922;-83
2022/05/09 10:30:32;;;;;;;;;;;;;;;24.59;40.23;100589.06;1090077;46;19958;-84
2022/05/09 10:31:35;;;;;;;;;;;;;;;24.34;39.13;100592.66;1088263;54;19950;-82
2022/05/09 10:32:42;;;;;;;;;;;;;;;23.97;39.09;100587.06;1088547;54;19978;-82
2022/05/09 10:33:47;;;;;;;;;;;;;;;24.16;39.18;100587.97;1088554;54;19945;-85
2022/05/09 10:34:55;;;;;;;;;;;;;;;24.23;38.74;100585.19;1089774;46;19927;-83
2022/05/09 10:36:03;;;;;;;;;;;;;;;24.20;38.63;100583.75;1089226;46;19945;-83
2022/05/09 10:37:12;;;;;;;;;;;;;;;24.32;38.88;100580.28;1091173;46;19951;-84
2022/05/09 10:38:17;;;;;;;;;;;;;;;24.44;38.49;100573.88;1088557;54;19951;-84
2022/05/09 10:39:25;;;;;;;;;;;;;;;24.63;39.05;100581.25;1089276;46;19923;-84
2022/05/09 10:40:31;;;;;;;;;;;;;;;24.63;39.05;100576.63;1090624;46;19943;-82
2022/05/09 10:41:40;;;;;;;;;;;;;;;24.52;39.17;100566.44;1090401;46;19930;-81
2022/05/09 10:42:45;;;;;;;;;;;;;;;24.28;39.22;100575.25;1088535;54;19939;-82
2022/05/09 10:43:50;;;;;;;;;;;;;;;24.12;39.35;100582.09;1088533;54;19949;-81
2022/05/09 10:46:18;;;;;;;;;;;;;;;24.25;39.62;100577.59;1088325;54;19941;-82
2022/05/09 10:47:28;;;;;;;;;;;;;;;24.16;39.59;100570.75;1088623;46;20647;-81
2022/05/09 10:48:34;;;;;;;;;;;;;;;24.20;39.28;100566.50;1088340;54;19951;-82
2022/05/09 10:49:44;;;;;;;;;;;;;;;24.04;39.55;100570.63;1088418;54;19966;-82
2022/05/09 10:50:51;;;;;;;;;;;;;;;23.88;39.42;100571.97;1088465;54;19927;-82
2022/05/09 10:51:59;;;;;;;;;;;;;;;23.67;40.27;100574.00;1090824;39;20557;-83
2022/05/09 10:54:09;;;;;;;;;;;;;;;23.69;40.31;100563.69;1086579;54;19957;-79
2022/05/09 10:55:15;;;;;;;;;;;;;;;23.84;40.26;100560.66;1087238;54;19958;-80
2022/05/09 10:56:23;;;;;;;;;;;;;;;24.09;39.93;100551.69;1086792;54;19946;-80
2022/05/09 10:57:29;;;;;;;;;;;;;;;24.25;40.19;100561.22;1086747;54;19950;-78
2022/05/09 10:58:37;;;;;;;;;;;;;;;24.11;39.45;100553.13;1089765;39;20342;-80
2022/05/09 10:59:41;;;;;;;;;;;;;;;24.11;39.96;100552.31;1087099;54;19950;-78
2022/05/09 11:00:48;;;;;;;;;;;;;;;24.13;39.83;100559.22;1087296;54;20449;-78
2022/05/09 11:01:56;;;;;;;;;;;;;;;24.20;39.70;100552.84;1087937;46;19945;-78
2022/05/09 11:03:07;;;;;;;;;;;;;;;24.22;40.02;100557.03;1087827;54;19927;-80
2022/05/09 11:04:09;;;;;;;;;;;;;;;24.28;39.88;100561.59;1087699;54;19947;-78
2022/05/09 11:05:14;;;;;;;;;;;;;;;24.15;39.59;100561.72;1087052;54;19947;-79
2022/05/09 11:06:27;;;;;;;;;;;;;;;24.03;39.68;100558.03;1087275;46;19969;-79
2022/05/09 11:07:38;;;;;;;;;;;;;;;23.79;40.39;100561.31;1086669;54;19942;-79
2022/05/09 11:08:49;;;;;;;;;;;;;;;23.73;40.56;100553.16;1087213;54;19982;-79
2022/05/09 11:10:05;;;;;;;;;;;;;;;23.80;41.00;100557.53;1087245;54;19947;-78
2022/05/09 11:11:14;;;;;;;;;;;;;;;23.87;40.82;100553.91;1086860;54;19950;-79
2022/05/09 11:12:26;;;;;;;;;;;;;;;23.90;40.15;100561.69;1086881;54;20049;-79
2022/05/09 11:13:33;;;;;;;;;;;;;;;23.91;39.85;100546.94;1086970;54;19946;-80
2022/05/09 11:14:42;;;;;;;;;;;;;;;23.80;40.13;100546.63;1087219;54;19962;-79
2022/05/09 11:15:53;;;;;;;;;;;;;;;23.92;40.30;100540.44;1087150;54;20441;-79
2022/05/09 11:17:08;;;;;;;;;;;;;;;24.00;39.94;100537.44;1086885;54;19947;-79
2022/05/09 11:18:26;;;;;;;;;;;;;;;23.98;40.19;100531.41;1087405;54;19943;-79
2022/05/09 11:19:39;;;;;;;;;;;;;;;23.77;40.03;100540.75;1087400;54;19957;-80
2022/05/09 11:20:47;;;;;;;;;;;;;;;23.77;39.94;100541.59;1087397;54;19946;-79
2022/05/09 11:21:55;;;;;;;;;;;;;;;23.70;40.01;100531.78;1087419;54;19957;-78
2022/05/09 11:23:06;;;;;;;;;;;;;;;23.68;39.70;100535.56;1086939;54;19931;-79
2022/05/09 11:24:12;;;;;;;;;;;;;;;23.70;39.58;100532.63;1087198;54;19973;-78
2022/05/09 11:25:24;;;;;;;;;;;;;;;23.72;38.75;100518.75;1086910;54;19950;-78
2022/05/09 11:26:28;;;;;;;;;;;;;;;23.68;38.57;100541.00;1087199;54;19951;-78
2022/05/09 11:27:39;;;;;;;;;;;;;;;23.79;38.65;100534.03;1087055;54;20006;-79
2022/05/09 11:29:01;;;;;;;;;;;;;;;23.79;38.01;100531.31;1086824;54;19938;-78
2022/05/09 11:30:11;;;;;;;;;;;;;;;23.68;37.99;100535.56;1086657;54;19954;-78
2022/05/09 11:31:19;;;;;;;;;;;;;;;23.65;38.37;100533.28;1087099;54;19941;-79
2022/05/09 11:32:38;;;;;;;;;;;;;;;23.58;38.52;100528.91;1086775;54;19953;-79
2022/05/09 11:33:48;;;;;;;;;;;;;;;23.50;38.77;100528.13;1087073;54;20467;-79
2022/05/09 11:35:05;;;;;;;;;;;;;;;23.60;38.91;100527.63;1087394;54;19971;-80
2022/05/09 11:36:15;;;;;;;;;;;;;;;23.63;38.87;100518.16;1087391;54;19950;-80
2022/05/09 11:37:22;;;;;;;;;;;;;;;23.56;38.65;100528.28;1087696;54;19946;-79
2022/05/09 11:38:36;;;;;;;;;;;;;;;23.49;38.41;100528.31;1087471;54;19947;-79
2022/05/09 11:39:47;;;;;;;;;;;;;;;23.46;38.18;100518.69;1087800;54;19950;-78
2022/05/09 11:40:54;;;;;;;;;;;;;;;23.57;37.84;100521.78;1087730;54;19942;-79
2022/05/09 11:43:27;;;;;;;;;;;;;;;23.62;38.09;100516.50;1087115;54;19950;-79
2022/05/09 11:43:32;;;;;;;;;;;;;;;23.78;37.87;100515.97;1087763;54;19947;-79
2022/05/09 11:44:41;;;;;;;;;;;;;;;23.87;37.65;100511.06;1087454;54;19939;-80
2022/05/09 11:45:46;;;;;;;;;;;;;;;23.89;37.50;100511.69;1087673;54;19954;-80
2022/05/09 11:46:58;;;;;;;;;;;;;;;23.92;37.44;100502.22;1087541;54;20006;-79
2022/05/09 11:48:05;;;;;;;;;;;;;;;23.87;36.41;100502.06;1087767;54;19947;-79
2022/05/09 11:49:13;;;;;;;;;;;;;;;23.72;36.71;100503.19;1088306;39;20456;-79
2022/05/09 11:50:25;;;;;;;;;;;;;;;23.82;36.65;100509.00;1087610;54;20003;-79
2022/05/09 11:51:36;;;;;;;;;;;;;;;23.80;37.01;100510.28;1087433;54;19946;-78
2022/05/09 11:52:43;;;;;;;;;;;;;;;23.66;36.67;100504.91;1087171;54;19951;-79
2022/05/09 11:53:51;;;;;;;;;;;;;;;23.62;37.03;100505.56;1087256;54;21389;-79
2022/05/09 11:54:55;;;;;;;;;;;;;;;23.60;37.23;100511.25;1087604;54;19946;-79
2022/05/09 11:56:05;;;;;;;;;;;;;;;23.71;36.91;100506.97;1087759;54;19943;-79
2022/05/09 11:57:13;;;;;;;;;;;;;;;23.71;37.06;100501.53;1087663;54;20600;-79
2022/05/09 11:58:18;;;;;;;;;;;;;;;23.95;37.01;100508.09;1087796;54;19957;-79
2022/05/09 11:59:21;;;;;;;;;;;;;;;24.13;36.66;100504.59;1087757;54;19943;-80
2022/05/09 12:00:40;;;;;;;;;;;;;;;24.21;35.74;100508.09;1087770;54;19950;-80
2022/05/09 12:01:57;;;;;;;;;;;;;;;24.37;35.82;100502.03;1087989;54;19942;-79
2022/05/09 12:03:02;;;;;;;;;;;;;;;24.47;35.53;100493.34;1087783;54;19946;-79
2022/05/09 12:04:06;;;;;;;;;;;;;;;24.49;35.21;100495.84;1087744;54;19942;-79
2022/05/09 12:05:24;;;;;;;;;;;;;;;24.55;35.47;100500.41;1088394;54;19935;-79
2022/05/09 12:06:46;;;;;;;;;;;;;;;24.57;35.00;100501.00;1087592;54;19942;-79
2022/05/09 12:07:50;;;;;;;;;;;;;;;24.53;35.37;100500.63;1086070;54;19939;-80
2022/05/09 12:08:58;;;;;;;;;;;;;;;24.43;35.67;100498.44;1087043;54;19946;-80
2022/05/09 12:10:02;;;;;;;;;;;;;;;24.33;35.78;100495.38;1086940;54;19946;-80
2022/05/09 12:11:27;;;;;;;;;;;;;;;24.21;35.77;100491.69;1087532;46;19939;-80
2022/05/09 12:12:49;;;;;;;;;;;;;;;24.36;35.60;100497.66;1086903;54;19971;-80
2022/05/09 12:13:53;;;;;;;;;;;;;;;24.15;35.74;100490.69;1086106;54;19998;-83
2022/05/09 12:14:57;;;;;;;;;;;;;;;24.00;36.10;100491.03;1085559;54;19962;-80
2022/05/09 12:16:01;;;;;;;;;;;;;;;23.87;36.28;100493.88;1085990;54;19947;-80
2022/05/09 12:17:19;;;;;;;;;;;;;;;23.77;36.02;100495.19;1086624;46;19954;-80
2022/05/09 12:18:26;;;;;;;;;;;;;;;23.75;36.07;100491.03;1088383;39;20357;-81
2022/05/09 12:19:31;;;;;;;;;;;;;;;23.83;35.45;100486.09;1087846;54;19946;-79
2022/05/09 12:20:50;;;;;;;;;;;;;;;23.76;35.33;100489.94;1087573;54;20507;-80
2022/05/09 12:22:18;;;;;;;;;;;;;;;23.79;35.91;100484.91;1085785;54;20413;-80
2022/05/09 12:23:36;;;;;;;;;;;;;;;23.99;35.56;100486.66;1089736;46;19946;-80
2022/05/09 12:24:46;;;;;;;;;;;;;;;24.03;35.63;100490.59;1087298;54;19950;-82
2022/05/09 12:26:06;;;;;;;;;;;;;;;24.19;35.24;100491.09;1088276;54;19951;-80
2022/05/09 12:27:24;;;;;;;;;;;;;;;24.30;34.74;100479.44;1087223;54;19963;-80
2022/05/09 12:28:29;;;;;;;;;;;;;;;24.47;34.74;100481.59;1090847;39;20349;-82
2022/05/09 12:29:48;;;;;;;;;;;;;;;24.61;34.63;100483.09;1088628;39;20220;-80
2022/05/09 12:30:51;;;;;;;;;;;;;;;24.63;34.53;100482.88;1087488;54;19947;-80
2022/05/09 12:31:56;;;;;;;;;;;;;;;24.60;34.55;100486.91;1086358;54;20441;-80
2022/05/09 12:33:01;;;;;;;;;;;;;;;24.58;34.79;100475.34;1086643;54;19943;-81
2022/05/09 12:34:02;;;;;;;;;;;;;;;24.62;35.24;100468.38;1088221;54;20440;-81
2022/05/09 12:35:08;;;;;;;;;;;;;;;24.68;34.93;100477.59;1087253;54;19947;-80
2022/05/09 12:36:14;;;;;;;;;;;;;;;24.57;34.82;100471.78;1086844;54;19951;-80
2022/05/09 12:37:18;;;;;;;;;;;;;;;24.65;34.83;100476.13;1086997;54;19953;-81
2022/05/09 12:38:24;;;;;;;;;;;;;;;24.74;34.65;100477.53;1087320;54;19942;-79
2022/05/09 12:39:29;;;;;;;;;;;;;;;24.73;34.30;100470.38;1086882;54;19958;-79
2022/05/09 12:40:33;;;;;;;;;;;;;;;24.56;34.15;100480.22;1085958;54;20047;-78
2022/05/09 12:41:43;;;;;;;;;;;;;;;24.46;34.58;100467.09;1086859;54;19939;-78
2022/05/09 12:42:49;;;;;;;;;;;;;;;24.49;34.82;100473.97;1087648;54;19945;-81